^^
Station Historical Data
Daily Summary for April 6, 2017 Units:  Metric    English   Both
« Previous Day
Next Day »
Daily Weekly Monthly Yearly Custom
  High: Low: Average:
Temperature: 32.2 °C 16.9 °C 21.5 °C
Dew Point: 9.9 °C 5.7 °C 8.6 °C
Humidity: 59% 19% 46%
Wind Speed: 19.5km/h 0km/h 8.2km/h
Wind Gust: 22.5km/h - -
Wind- - SSW
Pressure: 1013.4 hPa 1008 hPa -
Precipitation: 0 mm    
Historical Graphs
 
 
Tabular Data for April 6, 2017
Time Temperature Dew Point Pressure Wind Wind Speed Wind Gust Humidity Rainfall Rate (Hourly) solar Conditions
01:08 19.6 °C 9.2 °C 1012.8 hPa SSW 14.3 km/h 16.1 km/h 51% 0 mm 0.0 W/m2
01:13 19.6 °C 9.2 °C 1012.8 hPa SSW 14.3 km/h 16.1 km/h 51% 0 mm 0.0 W/m2
01:18 19.6 °C 9.5 °C 1012.8 hPa SSW 16.3 km/h 19.3 km/h 52% 0 mm 0.0 W/m2
01:28 19.4 °C 9.3 °C 1012.4 hPa SSW 13 km/h 22.5 km/h 52% 0 mm 0.0 W/m2
01:33 19.4 °C 9.3 °C 1012.4 hPa SSW 16.3 km/h 17.7 km/h 52% 0 mm 0.0 W/m2
01:39 19.3 °C 9.5 °C 1012.4 hPa SSW 17.7 km/h 20.9 km/h 53% 0 mm 0.0 W/m2
01:44 19.3 °C 9.8 °C 1012.4 hPa SSW 17.7 km/h 20.9 km/h 54% 0 mm 0.0 W/m2
01:49 19.2 °C 9.7 °C 1012.4 hPa SSW 17.7 km/h 20.9 km/h 54% 0 mm 0.0 W/m2
01:59 19.2 °C 9.9 °C 1012.4 hPa SSW 9.7 km/h 20.9 km/h 55% 0 mm 0.0 W/m2
02:04 19.2 °C 9.9 °C 1012.1 hPa SSW 14.3 km/h 17.7 km/h 55% 0 mm 0.0 W/m2
02:09 19.1 °C 9.8 °C 1012.1 hPa SSW 11.1 km/h 17.7 km/h 55% 0 mm 0.0 W/m2
02:14 19 °C 9.8 °C 1012.1 hPa SSW 16.3 km/h 17.7 km/h 55% 0 mm 0.0 W/m2
02:19 19 °C 9.8 °C 1012.1 hPa SSW 13 km/h 17.7 km/h 55% 0 mm 0.0 W/m2
02:24 18.9 °C 9.7 °C 1012.1 hPa SSW 13 km/h 19.3 km/h 55% 0 mm 0.0 W/m2
02:34 18.8 °C 9.6 °C 1012.1 hPa SSW 11.1 km/h 16.1 km/h 55% 0 mm 0.0 W/m2
02:39 18.8 °C 9.6 °C 1011.7 hPa SSW 16.3 km/h 17.7 km/h 55% 0 mm 0.0 W/m2
02:44 18.8 °C 9.6 °C 1011.7 hPa SSW 16.3 km/h 19.3 km/h 55% 0 mm 0.0 W/m2
02:54 18.6 °C 9.4 °C 1011.7 hPa SSW 11.1 km/h 19.3 km/h 55% 0 mm 0.0 W/m2
02:59 18.6 °C 9.6 °C 1011.7 hPa SSW 17.7 km/h 20.9 km/h 56% 0 mm 0.0 W/m2
03:04 18.6 °C 9.6 °C 1011.7 hPa SSW 13 km/h 17.7 km/h 56% 0 mm 0.0 W/m2
03:09 18.6 °C 9.6 °C 1011.7 hPa SSW 16.3 km/h 17.7 km/h 56% 0 mm 0.0 W/m2
03:14 18.5 °C 9.8 °C 1011.7 hPa SSW 13 km/h 17.7 km/h 57% 0 mm 0.0 W/m2
03:19 18.5 °C 9.8 °C 1011.7 hPa SSW 9.7 km/h 17.7 km/h 57% 0 mm 0.0 W/m2
03:24 18.4 °C 9.7 °C 1011.7 hPa SSW 14.3 km/h 17.7 km/h 57% 0 mm 0.0 W/m2
03:29 18.4 °C 9.7 °C 1011.7 hPa SSW 14.3 km/h 19.3 km/h 57% 0 mm 0.0 W/m2
03:34 18.3 °C 9.6 °C 1011.7 hPa SSW 11.1 km/h 17.7 km/h 57% 0 mm 0.0 W/m2
03:39 18.3 °C 9.6 °C 1011.7 hPa SSW 14.3 km/h 17.7 km/h 57% 0 mm 0.0 W/m2
03:44 18.3 °C 9.6 °C 1012.1 hPa SSW 11.1 km/h 16.1 km/h 57% 0 mm 0.0 W/m2
03:49 18.2 °C 9.5 °C 1012.1 hPa SSW 9.7 km/h 12.9 km/h 57% 0 mm 0.0 W/m2
03:54 18.1 °C 9.7 °C 1012.1 hPa SSW 7.9 km/h 11.3 km/h 58% 0 mm 0.0 W/m2
04:00 18.1 °C 9.7 °C 1012.1 hPa SSW 11.1 km/h 14.5 km/h 58% 0 mm 0.0 W/m2
04:05 18 °C 9.6 °C 1012.1 hPa SSW 11.1 km/h 11.3 km/h 58% 0 mm 0.0 W/m2
04:10 17.9 °C 9.5 °C 1012.1 hPa SSW 9.7 km/h 11.3 km/h 58% 0 mm 0.0 W/m2
04:15 17.8 °C 9.4 °C 1012.1 hPa SSW 7.9 km/h 9.7 km/h 58% 0 mm 0.0 W/m2
04:25 17.6 °C 9.2 °C 1012.1 hPa SSW 6.4 km/h 8 km/h 58% 0 mm 0.0 W/m2
04:30 17.6 °C 9.5 °C 1012.4 hPa SSW 6.4 km/h 8 km/h 59% 0 mm 0.0 W/m2
04:35 17.4 °C 9.3 °C 1012.4 hPa SSW 7.9 km/h 8 km/h 59% 0 mm 0.0 W/m2
04:45 17.4 °C 9.3 °C 1012.4 hPa SSW 6.4 km/h 9.7 km/h 59% 0 mm 0.0 W/m2
04:55 17.4 °C 9.3 °C 1012.4 hPa SSW 9.7 km/h 11.3 km/h 59% 0 mm 0.0 W/m2
05:00 17.4 °C 9.3 °C 1012.4 hPa SSW 9.7 km/h 11.3 km/h 59% 0 mm 0.0 W/m2
05:06 17.4 °C 9.3 °C 1012.4 hPa SSW 7.9 km/h 11.3 km/h 59% 0 mm 0.0 W/m2
05:11 17.4 °C 9.3 °C 1012.4 hPa SSW 7.9 km/h 9.7 km/h 59% 0 mm 0.0 W/m2
05:16 17.3 °C 9.2 °C 1012.4 hPa SSW 6.4 km/h 9.7 km/h 59% 0 mm 0.0 W/m2
05:21 17.3 °C 9.2 °C 1012.1 hPa SSW 11.1 km/h 12.9 km/h 59% 0 mm 0.0 W/m2
05:26 17.3 °C 9.2 °C 1012.4 hPa SSW 9.7 km/h 11.3 km/h 59% 0 mm 0.0 W/m2
05:36 17.2 °C 9.1 °C 1012.4 hPa SSW 7.9 km/h 12.9 km/h 59% 0 mm 0.0 W/m2
05:41 17.2 °C 8.9 °C 1012.4 hPa SSW 9.7 km/h 11.3 km/h 58% 0 mm 0.0 W/m2
05:46 17.3 °C 9 °C 1012.4 hPa SSW 6.4 km/h 9.7 km/h 58% 0 mm 0.0 W/m2
05:56 17.2 °C 8.9 °C 1012.4 hPa SSW 7.9 km/h 9.7 km/h 58% 0 mm 0.0 W/m2
06:01 17.1 °C 8.5 °C 1012.8 hPa SSW 7.9 km/h 9.7 km/h 57% 0 mm 0.0 W/m2
06:07 17.1 °C 8.5 °C 1012.8 hPa SSW 9.7 km/h 9.7 km/h 57% 0 mm 7.0 W/m2
06:10 17 °C 8.4 °C 1012.8 hPa SSW 6.4 km/h 9.7 km/h 57% 0 mm 14.0 W/m2
06:27 16.9 °C 8.3 °C 1012.8 hPa SSW 4.7 km/h 8 km/h 57% 0 mm 32.0 W/m2
06:42 17.2 °C 8.6 °C 1012.8 hPa SSW 6.4 km/h 8 km/h 57% 0 mm 67.0 W/m2
06:51 17.7 °C 8.8 °C 1012.8 hPa SSW 4.7 km/h 8 km/h 56% 0 mm 104.0 W/m2
07:01 18.1 °C 8.6 °C 1013.1 hPa SSW 6.4 km/h 8 km/h 54% 0 mm 130.0 W/m2
07:16 18.6 °C 8.8 °C 1013.1 hPa SSW 4.7 km/h 8 km/h 53% 0 mm 188.0 W/m2
07:24 18.6 °C 8.8 °C 1013.1 hPa SSW 4.7 km/h 8 km/h 53% 0 mm 188.0 W/m2
07:31 18.9 °C 8.5 °C 1013.1 hPa SSW 7.9 km/h 9.7 km/h 51% 0 mm 237.0 W/m2
07:51 19.4 °C 8.7 °C 1013.4 hPa Calm     50% 0 mm 244.0 W/m2
08:06 19.8 °C 8.8 °C 1013.4 hPa Calm     49% 0 mm 295.0 W/m2
08:29 20.2 °C 8.2 °C 1013.4 hPa Calm     46% 0 mm 338.0 W/m2
08:44 20.7 °C 8.3 °C 1013.4 hPa Calm     45% 0 mm 420.0 W/m2
08:59 21.7 °C 8.6 °C 1013.1 hPa Calm     43% 0 mm 476.0 W/m2
09:03 22.5 °C 8.6 °C 1013.1 hPa Calm     41% 0 mm 555.0 W/m2
09:14 23.3 °C 8.2 °C 1013.1 hPa Calm     38% 0 mm 494.0 W/m2
09:29 24 °C 8 °C 1013.1 hPa Calm     36% 0 mm 499.0 W/m2
09:38 24.5 °C 8 °C 1012.8 hPa Calm     35% 0 mm 587.0 W/m2
09:43 24.7 °C 8.2 °C 1012.8 hPa Calm     35% 0 mm 592.0 W/m2
09:53 25.4 °C 7.5 °C 1012.8 hPa Calm     32% 0 mm 689.0 W/m2
09:58 26 °C 8 °C 1012.8 hPa Calm     32% 0 mm 729.0 W/m2
10:00 26.5 °C 7.5 °C 1012.8 hPa Calm     30% 0 mm 737.0 W/m2
10:08 26.8 °C 7.3 °C 1012.8 hPa Calm     29% 0 mm 670.0 W/m2
10:15 27.1 °C 7.5 °C 1012.8 hPa Calm     29% 0 mm 515.0 W/m2
10:24 26.9 °C 6.8 °C 1012.8 hPa Calm     28% 0 mm 610.0 W/m2
10:25 27.2 °C 7.1 °C 1012.8 hPa Calm     28% 0 mm 675.0 W/m2
10:36 27.7 °C 7 °C 1012.4 hPa Calm     27% 0 mm 768.0 W/m2
10:57 28.1 °C 6.2 °C 1012.4 hPa Calm   4.8 km/h 25% 0 mm 761.0 W/m2
11:01 28.5 °C 6.6 °C 1012.1 hPa Calm     25% 0 mm 765.0 W/m2
11:17 29.2 °C 7.2 °C 1011.7 hPa Calm     25% 0 mm 773.0 W/m2
11:39 29.2 °C 7.2 °C 1011.4 hPa Calm     25% 0 mm 482.0 W/m2
11:52 29.5 °C 7.4 °C 1011.1 hPa West 6.4 km/h 11.3 km/h 25% 0 mm 791.0 W/m2
12:02 30.1 °C 7.3 °C 1011.1 hPa Calm     24% 0 mm 784.0 W/m2
12:11 30.2 °C 7.4 °C 1010.7 hPa Calm   17.7 km/h 24% 0 mm 816.0 W/m2
12:20 30.7 °C 7.2 °C 1010.7 hPa NW 1.4 km/h 8 km/h 23% 0 mm 628.0 W/m2
17:53 32.2 °C 5.7 °C 1008 hPa Calm     19% 0 mm 0.0 W/m2
18:13 30.7 °C 7.2 °C 1008.4 hPa South 16.3 km/h 19.3 km/h 23% 0 mm 0.0 W/m2
18:33 29.8 °C 7.1 °C 1008.4 hPa South 14.3 km/h 20.9 km/h 24% 0 mm 0.0 W/m2
18:53 29.1 °C 7.1 °C 1008.4 hPa South 19.5 km/h 20.9 km/h 25% 0 mm 0.0 W/m2
19:13 28.1 °C 6.8 °C 1008.7 hPa South 11.1 km/h 17.7 km/h 26% 0 mm 0.0 W/m2
19:33 27.4 °C 6.7 °C 1009 hPa SSW 17.7 km/h 22.5 km/h 27% 0 mm 0.0 W/m2
19:54 27 °C 7.4 °C 1009 hPa SSW 13 km/h 17.7 km/h 29% 0 mm 0.0 W/m2
20:14 26.2 °C 7.7 °C 1009.4 hPa SSW 14.3 km/h 14.5 km/h 31% 0 mm 0.0 W/m2
20:34 25.8 °C 7.9 °C 1009.4 hPa SSW 14.3 km/h 17.7 km/h 32% 0 mm 0.0 W/m2
20:56 25.7 °C 7.8 °C 1009.7 hPa SSW 13 km/h 20.9 km/h 32% 0 mm 0.0 W/m2
21:10 25.4 °C 8 °C 1009.7 hPa SSW 9.7 km/h 16.1 km/h 33% 0 mm 0.0 W/m2
21:19 25.2 °C 7.8 °C 1009.4 hPa SSW 9.7 km/h 16.1 km/h 33% 0 mm 0.0 W/m2
21:28 25.1 °C 7.7 °C 1009.4 hPa SSW 11.1 km/h 12.9 km/h 33% 0 mm 0.0 W/m2
21:38 24.9 °C 8 °C 1009.4 hPa SSW 11.1 km/h 16.1 km/h 34% 0 mm 0.0 W/m2
Canyon Roadhouse, Fishriver Canyon, Namibia
Compliments of Weather Underground - 2 mb